createdAt,value
2023-08-01T00:02:34.028Z,86.89
2023-08-01T00:05:46.405Z,86.54
2023-08-01T00:08:48.240Z,86.76
2023-08-01T00:11:50.205Z,86.82
2023-08-01T00:14:52.185Z,86.62
2023-08-01T00:17:54.116Z,86.69
2023-08-01T00:20:56.027Z,86.35
2023-08-01T00:23:58.246Z,86.29
2023-08-01T00:27:00.145Z,86.50
2023-08-01T00:30:02.012Z,86.39
2023-08-01T00:33:04.031Z,86.97
2023-08-01T00:36:10.556Z,86.64
2023-08-01T00:39:12.761Z,86.29
2023-08-01T00:42:16.274Z,86.20
2023-08-01T00:45:18.247Z,86.24
2023-08-01T00:48:20.927Z,86.79
2023-08-01T00:51:22.923Z,86.98
2023-08-01T00:54:25.488Z,86.92
2023-08-01T00:57:28.893Z,86.56
2023-08-01T01:00:31.301Z,86.81
2023-08-01T01:03:33.785Z,86.96
2023-08-01T01:06:58.544Z,87.26
2023-08-01T01:10:00.520Z,87.21
2023-08-01T01:13:02.748Z,86.92
2023-08-01T01:16:04.994Z,87.10
2023-08-01T01:19:09.464Z,88.06
2023-08-01T01:22:12.203Z,87.43
2023-08-01T01:25:14.668Z,87.81
2023-08-01T01:28:17.422Z,87.77
2023-08-01T01:31:20.208Z,87.44
2023-08-01T01:34:22.932Z,87.46
2023-08-01T01:37:25.392Z,87.45
2023-08-01T01:40:28.266Z,87.25
2023-08-01T01:43:30.212Z,87.12
2023-08-01T01:46:32.146Z,87.57
2023-08-01T01:49:34.036Z,88.12
2023-08-01T01:52:35.986Z,88.29
2023-08-01T01:55:37.987Z,88.82
2023-08-01T01:58:39.892Z,88.58
2023-08-01T02:01:41.830Z,88.54
2023-08-01T02:04:43.730Z,88.27
2023-08-01T02:07:45.726Z,88.24
2023-08-01T02:10:48.912Z,88.11
2023-08-01T02:13:53.302Z,88.26
2023-08-01T02:16:55.318Z,88.19
2023-08-01T02:19:57.400Z,88.04
2023-08-01T02:22:59.721Z,88.80
2023-08-01T02:26:01.807Z,88.67
2023-08-01T02:29:05.331Z,88.61
2023-08-01T02:32:07.257Z,88.96
2023-08-01T02:35:10.367Z,88.31
2023-08-01T02:38:12.303Z,88.27
2023-08-01T02:41:14.194Z,88.96
2023-08-01T02:44:16.740Z,88.84
2023-08-01T02:47:18.716Z,88.59
2023-08-01T02:50:20.683Z,88.66
2023-08-01T02:53:22.658Z,88.56
2023-08-01T02:56:24.590Z,88.87
2023-08-01T02:59:26.493Z,88.82
2023-08-01T03:02:29.130Z,89.14
2023-08-01T03:05:31.238Z,89.28
2023-08-01T03:08:33.316Z,89.10
2023-08-01T03:11:37.192Z,88.98
2023-08-01T03:14:39.140Z,88.92
2023-08-01T03:17:41.048Z,89.29
2023-08-01T03:20:44.357Z,89.13
2023-08-01T03:23:46.204Z,89.98
2023-08-01T03:26:48.150Z,89.98
2023-08-01T03:29:51.355Z,90.02
2023-08-01T03:32:53.463Z,90.49
2023-08-01T03:35:55.411Z,90.66
2023-08-01T03:38:57.303Z,90.27
2023-08-01T03:41:59.227Z,90.59
2023-08-01T03:45:01.115Z,91.40
2023-08-01T03:48:03.024Z,91.51
2023-08-01T03:51:05.338Z,91.83
2023-08-01T03:54:13.841Z,93.95
2023-08-01T03:57:16.559Z,92.28
2023-08-01T04:00:19.570Z,93.25
2023-08-01T04:03:22.792Z,91.00
2023-08-01T04:06:24.803Z,89.79
2023-08-01T04:09:26.728Z,89.61
2023-08-01T04:12:28.681Z,89.49
2023-08-01T04:15:31.411Z,88.73
2023-08-01T04:18:33.324Z,88.11
2023-08-01T04:21:35.251Z,87.43
2023-08-01T04:24:37.191Z,87.29
2023-08-01T04:27:39.123Z,87.16
2023-08-01T04:30:41.062Z,86.51
2023-08-01T04:33:42.969Z,85.37
2023-08-01T04:36:44.822Z,84.31
2023-08-01T04:39:46.772Z,82.76
2023-08-01T04:42:48.632Z,81.48
2023-08-01T04:45:51.510Z,80.59
2023-08-01T04:48:53.416Z,80.06
2023-08-01T04:51:56.893Z,79.28
2023-08-01T04:54:58.961Z,78.16
2023-08-01T04:58:00.826Z,76.94
2023-08-01T05:01:02.837Z,76.09
2023-08-01T05:04:04.895Z,74.35
2023-08-01T05:07:07.323Z,74.67
2023-08-01T05:10:09.787Z,73.85
2023-08-01T05:13:11.731Z,73.03
2023-08-01T05:16:13.794Z,72.21
2023-08-01T05:19:15.636Z,72.23
2023-08-01T05:22:17.521Z,71.01
2023-08-01T05:25:19.407Z,69.86
2023-08-01T05:28:21.418Z,68.73
2023-08-01T05:31:23.424Z,66.40
2023-08-01T05:34:25.498Z,65.84
2023-08-01T05:37:27.439Z,65.53
2023-08-01T05:40:29.149Z,64.07
2023-08-01T05:43:31.091Z,64.20
2023-08-01T05:46:33.079Z,61.43
2023-08-01T05:49:35.193Z,62.76
2023-08-01T05:52:37.014Z,58.19
2023-08-01T05:55:39.011Z,60.80
2023-08-01T05:58:41.214Z,55.33
2023-08-01T06:01:43.321Z,58.96
2023-08-01T06:04:45.345Z,58.00
2023-08-01T06:07:47.328Z,55.38
2023-08-01T06:10:49.595Z,56.47
2023-08-01T06:13:51.555Z,56.51
2023-08-01T06:16:53.385Z,55.33
2023-08-01T06:19:56.022Z,57.23
2023-08-01T06:22:57.861Z,57.25
2023-08-01T06:25:59.696Z,55.44
2023-08-01T06:29:01.704Z,55.88
2023-08-01T06:32:03.712Z,54.99
2023-08-01T06:35:06.099Z,51.17
2023-08-01T06:38:08.045Z,51.95
2023-08-01T06:41:10.156Z,50.78
2023-08-01T06:44:12.104Z,49.80
2023-08-01T06:47:14.074Z,48.64
2023-08-01T06:50:16.142Z,49.20
2023-08-01T06:53:18.519Z,49.14
2023-08-01T06:56:20.433Z,49.91
2023-08-01T06:59:22.345Z,48.92
2023-08-01T07:02:24.297Z,48.13
2023-08-01T07:05:26.282Z,48.19
2023-08-01T07:08:28.309Z,47.50
2023-08-01T07:11:30.216Z,47.49
2023-08-01T07:14:32.146Z,46.89
2023-08-01T07:17:34.054Z,46.60
2023-08-01T07:20:35.986Z,46.65
2023-08-01T07:23:37.875Z,46.98
2023-08-01T07:26:40.077Z,47.46
2023-08-01T07:29:42.201Z,47.90
2023-08-01T07:32:44.495Z,47.35
2023-08-01T07:35:46.453Z,47.04
2023-08-01T07:38:48.460Z,47.22
2023-08-01T07:41:50.419Z,47.47
2023-08-01T07:44:52.417Z,48.46
2023-08-01T07:47:54.344Z,49.06
2023-08-01T07:50:56.318Z,49.46
2023-08-01T07:53:58.448Z,49.89
2023-08-01T07:57:00.314Z,49.97
2023-08-01T08:00:02.306Z,50.23
2023-08-01T08:03:15.361Z,49.06
2023-08-01T08:06:17.384Z,48.65
2023-08-01T08:09:19.590Z,48.05
2023-08-01T08:12:24.562Z,46.30
2023-08-01T08:15:27.323Z,45.25
2023-08-01T08:18:29.263Z,45.07
2023-08-01T08:21:31.213Z,45.52
2023-08-01T08:24:33.264Z,45.01
2023-08-01T08:27:35.503Z,44.44
2023-08-01T08:30:37.577Z,44.97
2023-08-01T08:33:39.482Z,43.69
2023-08-01T08:36:41.525Z,44.24
2023-08-01T08:39:44.773Z,44.53
2023-08-01T08:42:47.551Z,45.54
2023-08-01T08:45:51.066Z,45.21
2023-08-01T08:48:53.299Z,44.75
2023-08-01T08:51:55.960Z,45.57
2023-08-01T08:54:59.446Z,45.17
2023-08-01T08:58:01.616Z,45.87
2023-08-01T09:01:04.901Z,45.63
2023-08-01T09:04:08.021Z,45.74
2023-08-01T09:07:12.438Z,46.03
2023-08-01T09:10:14.534Z,46.82
2023-08-01T09:13:16.580Z,47.07
2023-08-01T09:16:18.699Z,47.24
2023-08-01T09:19:22.361Z,46.17
2023-08-01T09:22:24.300Z,45.95
2023-08-01T09:25:36.080Z,46.57
2023-08-01T09:28:38.247Z,47.17
2023-08-01T09:31:42.067Z,48.47
2023-08-01T09:34:44.406Z,48.47
2023-08-01T09:37:46.311Z,49.40
2023-08-01T09:40:48.635Z,50.11
2023-08-01T09:43:51.552Z,49.47
2023-08-01T09:47:01.744Z,50.04
2023-08-01T09:50:03.833Z,49.90
2023-08-01T09:53:09.657Z,48.30
2023-08-01T09:56:12.936Z,47.97
2023-08-01T09:59:19.690Z,47.53
2023-08-01T10:02:25.222Z,47.65
2023-08-01T10:05:32.100Z,47.41
2023-08-01T10:08:35.253Z,47.17
2023-08-01T10:11:39.622Z,46.10
2023-08-01T10:14:42.903Z,45.48
2023-08-01T10:17:45.909Z,45.45
2023-08-01T10:20:49.150Z,45.39
2023-08-01T10:23:51.505Z,46.43
2023-08-01T10:26:53.419Z,46.35
2023-08-01T10:30:03.009Z,45.11
2023-08-01T10:33:05.056Z,45.61
2023-08-01T10:36:17.221Z,44.81
2023-08-01T10:39:23.788Z,45.44
2023-08-01T10:42:26.254Z,46.14
2023-08-01T10:45:30.749Z,45.18
2023-08-01T10:48:32.974Z,44.17
2023-08-01T10:51:38.066Z,44.90
2023-08-01T10:54:42.006Z,43.90
2023-08-01T10:57:51.002Z,42.08
2023-08-01T11:00:59.408Z,42.58
2023-08-01T11:04:01.531Z,42.42
2023-08-01T11:07:05.963Z,42.13
2023-08-01T11:10:13.176Z,42.65
2023-08-01T11:13:15.081Z,42.24
2023-08-01T11:16:17.171Z,42.61
2023-08-01T11:19:24.673Z,42.63
2023-08-01T11:22:26.983Z,42.99
2023-08-01T11:25:44.470Z,42.57
2023-08-01T11:28:48.371Z,42.60
2023-08-01T11:32:08.716Z,43.69
2023-08-01T11:35:19.225Z,40.49
2023-08-01T11:38:23.562Z,41.18
2023-08-01T11:41:28.432Z,38.94
2023-08-01T11:44:30.817Z,40.60
2023-08-01T11:47:32.787Z,40.78
2023-08-01T11:50:34.826Z,40.79
2023-08-01T11:53:39.976Z,40.87
2023-08-01T11:56:44.303Z,40.77
2023-08-01T11:59:55.605Z,41.54
2023-08-01T12:03:14.670Z,41.45
2023-08-01T12:06:18.296Z,42.45
2023-08-01T12:09:21.858Z,43.11
2023-08-01T12:12:24.163Z,43.94
2023-08-01T12:15:27.259Z,44.59
2023-08-01T12:21:36.037Z,46.46
2023-08-01T12:24:38.988Z,46.91
2023-08-01T12:27:40.919Z,47.70
2023-08-01T12:30:43.517Z,48.10
2023-08-01T12:33:48.772Z,48.74
2023-08-01T12:36:50.699Z,48.84
2023-08-01T12:39:54.541Z,48.98
2023-08-01T12:42:56.428Z,49.19
2023-08-01T12:45:59.451Z,49.38
2023-08-01T12:49:02.420Z,49.79
2023-08-01T12:52:04.530Z,50.63
2023-08-01T12:55:07.082Z,50.59
2023-08-01T12:58:09.510Z,50.92
2023-08-01T13:01:11.557Z,49.57
2023-08-01T13:04:13.522Z,48.77
2023-08-01T13:07:15.485Z,47.04
2023-08-01T13:10:17.354Z,46.87
2023-08-01T13:13:19.462Z,44.19
2023-08-01T13:16:21.462Z,43.57
2023-08-01T13:19:23.381Z,44.36
2023-08-01T13:22:25.311Z,42.62
2023-08-01T13:25:27.364Z,42.51
2023-08-01T13:28:29.315Z,42.72
2023-08-01T13:31:31.325Z,40.93
2023-08-01T13:34:33.379Z,40.14
2023-08-01T13:37:36.450Z,39.49
2023-08-01T13:40:38.431Z,39.57
2023-08-01T13:43:40.360Z,37.83
2023-08-01T13:46:42.369Z,37.55
2023-08-01T13:49:44.259Z,38.44
2023-08-01T13:52:46.169Z,39.65
2023-08-01T13:55:47.999Z,38.44
2023-08-01T13:58:49.939Z,38.48
2023-08-01T14:01:52.038Z,38.89
2023-08-01T14:04:53.940Z,39.49
2023-08-01T14:07:56.102Z,40.17
2023-08-01T14:10:58.093Z,40.31
2023-08-01T14:13:59.934Z,39.85
2023-08-01T14:17:01.850Z,41.07
2023-08-01T14:20:06.902Z,41.01
2023-08-01T14:23:10.055Z,40.59
2023-08-01T14:26:11.974Z,41.35
2023-08-01T14:29:13.935Z,42.67
2023-08-01T14:32:19.363Z,43.38
2023-08-01T14:35:21.313Z,44.13
2023-08-01T14:38:23.509Z,44.29
2023-08-01T14:41:46.968Z,44.82
2023-08-01T14:44:52.731Z,43.98
2023-08-01T14:47:54.677Z,44.83
2023-08-01T14:50:56.621Z,46.11
2023-08-01T14:53:58.545Z,45.88
2023-08-01T14:57:00.579Z,45.53
2023-08-01T15:00:03.287Z,44.45
2023-08-01T15:03:05.576Z,44.25
2023-08-01T15:06:08.606Z,44.01
2023-08-01T15:09:11.327Z,44.40
2023-08-01T15:12:13.346Z,44.74
2023-08-01T15:15:15.249Z,44.67
2023-08-01T15:18:17.207Z,43.95
2023-08-01T15:21:19.137Z,43.45
2023-08-01T15:24:21.056Z,43.02
2023-08-01T15:27:22.970Z,43.09
2023-08-01T15:30:24.871Z,42.70
2023-08-01T15:33:26.817Z,42.72
2023-08-01T15:36:29.719Z,43.13
2023-08-01T15:39:31.633Z,43.80
2023-08-01T15:42:33.607Z,44.84
2023-08-01T15:45:35.583Z,45.17
2023-08-01T15:48:38.255Z,44.78
2023-08-01T15:51:40.311Z,44.44
2023-08-01T15:54:42.717Z,44.59
2023-08-01T15:57:44.686Z,44.93
2023-08-01T16:00:46.619Z,45.46
2023-08-01T16:03:48.671Z,46.71
2023-08-01T16:06:50.654Z,47.82
2023-08-01T16:09:52.588Z,48.12
2023-08-01T16:12:54.574Z,48.70
2023-08-01T16:15:57.190Z,50.67
2023-08-01T16:18:59.492Z,50.77
2023-08-01T16:22:01.354Z,51.77
2023-08-01T16:25:03.464Z,51.97
2023-08-01T16:28:05.578Z,52.78
2023-08-01T16:31:07.750Z,53.26
2023-08-01T16:34:09.729Z,54.08
2023-08-01T16:37:11.663Z,55.23
2023-08-01T16:40:14.402Z,55.58
2023-08-01T16:43:16.337Z,55.98
2023-08-01T16:46:18.373Z,57.18
2023-08-01T16:49:23.298Z,57.98
2023-08-01T16:52:28.047Z,58.33
2023-08-01T16:55:30.198Z,59.06
2023-08-01T16:58:32.060Z,59.27
2023-08-01T17:01:33.928Z,60.21
2023-08-01T17:04:37.774Z,60.85
2023-08-01T17:07:40.008Z,61.26
2023-08-01T17:10:41.865Z,61.72
2023-08-01T17:13:43.711Z,63.45
2023-08-01T17:16:45.721Z,62.10
2023-08-01T17:19:50.509Z,61.75
2023-08-01T17:22:52.399Z,60.53
2023-08-01T17:25:54.250Z,60.82
2023-08-01T17:28:56.127Z,61.08
2023-08-01T17:31:57.913Z,61.80
2023-08-01T17:34:59.772Z,61.90
2023-08-01T17:38:01.644Z,62.77
2023-08-01T17:41:20.107Z,62.21
2023-08-01T17:44:22.105Z,62.41
2023-08-01T17:47:24.417Z,62.56
2023-08-01T17:50:26.454Z,62.96
2023-08-01T17:53:28.268Z,64.39
2023-08-01T17:56:30.150Z,63.88
2023-08-01T17:59:32.201Z,65.50
2023-08-01T18:02:34.270Z,64.33
2023-08-01T18:05:36.349Z,64.70
2023-08-01T18:08:38.146Z,66.75
2023-08-01T18:11:40.078Z,65.59
2023-08-01T18:14:41.941Z,67.65
2023-08-01T18:17:43.900Z,66.39
2023-08-01T18:20:46.227Z,68.31
2023-08-01T18:23:51.593Z,67.17
2023-08-01T18:26:53.551Z,67.60
2023-08-01T18:29:55.468Z,68.43
2023-08-01T18:32:57.473Z,70.34
2023-08-01T18:35:59.449Z,69.68
2023-08-01T18:39:01.808Z,70.10
2023-08-01T18:42:03.809Z,70.54
2023-08-01T18:45:07.934Z,72.38
2023-08-01T18:48:10.333Z,71.13
2023-08-01T18:51:12.828Z,72.87
2023-08-01T18:54:14.744Z,73.93
2023-08-01T18:57:16.687Z,72.16
2023-08-01T19:00:18.740Z,72.09
2023-08-01T19:03:20.757Z,73.43
2023-08-01T19:06:28.058Z,72.16
2023-08-01T19:09:30.173Z,72.52
2023-08-01T19:12:32.055Z,72.30
2023-08-01T19:15:33.964Z,72.30
2023-08-01T19:18:35.906Z,71.43
2023-08-01T19:21:37.827Z,71.32
2023-08-01T19:24:40.170Z,71.61
2023-08-01T19:27:42.179Z,71.65
2023-08-01T19:30:44.100Z,71.62
2023-08-01T19:33:46.551Z,71.98
2023-08-01T19:36:51.113Z,72.07
2023-08-01T19:39:53.042Z,72.59
2023-08-01T19:42:54.978Z,72.32
2023-08-01T19:45:56.988Z,72.50
2023-08-01T19:48:59.002Z,72.66
2023-08-01T19:52:01.063Z,72.71
2023-08-01T19:55:02.876Z,73.58
2023-08-01T19:58:04.741Z,72.78
2023-08-01T20:01:07.488Z,73.12
2023-08-01T20:04:10.529Z,73.24
2023-08-01T20:07:12.657Z,73.36
2023-08-01T20:10:15.375Z,73.91
2023-08-01T20:13:17.211Z,74.08
2023-08-01T20:16:20.619Z,74.46
2023-08-01T20:19:22.637Z,74.94
2023-08-01T20:22:25.414Z,74.89
2023-08-01T20:25:27.463Z,75.21
2023-08-01T20:28:32.097Z,75.24
2023-08-01T20:31:35.343Z,75.17
2023-08-01T20:34:38.586Z,75.25
2023-08-01T20:37:41.578Z,75.22
2023-08-01T20:40:43.461Z,75.21
2023-08-01T20:43:45.592Z,75.65
2023-08-01T20:46:47.751Z,76.08
2023-08-01T20:49:49.696Z,75.90
2023-08-01T20:52:51.626Z,75.82
2023-08-01T20:55:53.513Z,76.26
2023-08-01T20:58:55.338Z,75.97
2023-08-01T21:01:58.834Z,76.41
2023-08-01T21:05:03.882Z,76.42
2023-08-01T21:08:06.126Z,76.28
2023-08-01T21:11:14.910Z,76.98
2023-08-01T21:14:16.863Z,76.32
2023-08-01T21:17:18.754Z,76.76
2023-08-01T21:20:20.827Z,76.61
2023-08-01T21:23:22.921Z,76.61
2023-08-01T21:26:24.824Z,76.64
2023-08-01T21:29:26.747Z,76.83
2023-08-01T21:32:28.767Z,76.84
2023-08-01T21:35:30.744Z,77.30
2023-08-01T21:38:32.671Z,77.57
2023-08-01T21:41:34.564Z,77.69
2023-08-01T21:44:36.479Z,77.70
2023-08-01T21:47:40.084Z,77.70
2023-08-01T21:50:42.007Z,77.63
2023-08-01T21:53:43.958Z,77.74
2023-08-01T21:56:46.791Z,78.86
2023-08-01T21:59:49.811Z,78.03
2023-08-01T22:02:51.763Z,78.36
2023-08-01T22:05:58.079Z,78.36
2023-08-01T22:09:00.244Z,78.07
2023-08-01T22:12:02.304Z,77.97
2023-08-01T22:15:05.127Z,78.12
2023-08-01T22:18:07.018Z,78.03
2023-08-01T22:21:08.958Z,78.21
2023-08-01T22:24:10.794Z,78.54
2023-08-01T22:27:12.725Z,78.72
2023-08-01T22:30:14.728Z,78.40
2023-08-01T22:33:17.187Z,78.45
2023-08-01T22:36:19.154Z,78.65
2023-08-01T22:39:21.127Z,79.03
2023-08-01T22:42:23.058Z,78.41
2023-08-01T22:45:24.964Z,78.17
2023-08-01T22:48:26.984Z,78.93
2023-08-01T22:51:29.980Z,78.58
2023-08-01T22:54:32.256Z,78.50
2023-08-01T22:57:33.991Z,78.74
2023-08-01T23:00:36.041Z,78.34
2023-08-01T23:03:38.951Z,78.79
2023-08-01T23:06:42.321Z,78.82
2023-08-01T23:09:44.480Z,78.58
2023-08-01T23:12:46.518Z,78.39
2023-08-01T23:15:48.928Z,78.29
2023-08-01T23:18:50.717Z,79.44
2023-08-01T23:21:52.657Z,78.67
2023-08-01T23:24:54.796Z,78.54
2023-08-01T23:27:58.506Z,78.70
2023-08-01T23:31:00.868Z,78.57
2023-08-01T23:34:02.651Z,79.32
2023-08-01T23:37:04.793Z,79.06
2023-08-01T23:40:07.306Z,78.86
2023-08-01T23:43:09.333Z,79.00
2023-08-01T23:46:11.266Z,79.25
2023-08-01T23:49:13.288Z,79.60
2023-08-01T23:52:15.168Z,80.30
2023-08-01T23:55:17.559Z,79.89
2023-08-01T23:58:19.446Z,79.61
